Time;durP1;ratioP1;P1;durP2;ratioP2;P2;SDS_P1;SDS_P2;PMS_P1;PMS_P2;Temp;Humidity;BMP_temperature;BMP_pressure;BME280_temperature;BME280_humidity;BME280_pressure;Samples;Min_cycle;Max_cycle;Signal;HPM_P1;HPM_P2
2023/01/27 00:01:44;;;;;;;2.85;2.53;;;;;;;1.40;91.51;99657.81;5096452;28;20068;-69
2023/01/27 00:04:13;;;;;;;5.95;3.13;;;;;;;1.39;91.26;99656.97;5097468;28;20506;-70
2023/01/27 00:06:42;;;;;;;1.20;1.10;;;;;;;1.33;90.83;99660.13;5097237;28;20123;-68
2023/01/27 00:09:12;;;;;;;6.05;4.13;;;;;;;1.31;90.94;99653.34;5095327;28;20044;-69
2023/01/27 00:14:19;;;;;;;2.58;2.35;;;;;;;1.37;91.55;99657.72;5097301;28;20039;-69
2023/01/27 00:16:48;;;;;;;3.35;2.38;;;;;;;1.34;91.11;99651.78;5096850;28;20126;-69
2023/01/27 00:19:18;;;;;;;4.30;3.90;;;;;;;1.30;91.70;99657.50;5096887;28;20127;-69
2023/01/27 00:27:08;;;;;;;2.22;2.03;;;;;;;1.32;91.49;99658.41;5096556;28;20315;-69
2023/01/27 00:29:40;;;;;;;2.10;2.00;;;;;;;1.36;91.52;99661.91;5096724;28;20047;-68
2023/01/27 00:34:50;;;;;;;0.90;0.85;;;;;;;1.40;91.51;99661.19;5096580;28;20040;-69
2023/01/27 00:37:19;;;;;;;3.40;2.25;;;;;;;1.41;91.82;99659.53;5096452;28;20097;-69
2023/01/27 00:39:49;;;;;;;2.15;2.00;;;;;;;1.42;91.97;99657.06;5096431;28;20093;-68
2023/01/27 00:42:18;;;;;;;3.58;3.28;;;;;;;1.40;91.18;99647.75;5096787;28;20055;-69
2023/01/27 00:47:30;;;;;;;11.60;4.57;;;;;;;1.34;91.68;99659.31;5094295;28;20110;-69
2023/01/27 00:49:58;;;;;;;6.38;2.42;;;;;;;1.35;91.22;99656.00;5095083;28;20037;-69
2023/01/27 00:52:27;;;;;;;4.85;3.30;;;;;;;1.32;91.47;99655.03;5096255;28;20032;-69
2023/01/27 00:54:57;;;;;;;2.37;2.00;;;;;;;1.30;91.16;99657.50;5096148;28;20040;-69
2023/01/27 00:57:27;;;;;;;3.22;2.92;;;;;;;1.26;91.47;99649.81;5096116;28;20048;-69
2023/01/27 00:59:56;;;;;;;1.47;1.37;;;;;;;1.27;91.23;99659.06;5095243;28;20105;-69
2023/01/27 01:02:27;;;;;;;1.90;1.80;;;;;;;1.23;90.78;99650.53;5096094;28;20090;-70
2023/01/27 01:04:56;;;;;;;1.77;1.60;;;;;;;1.22;91.63;99648.81;5094863;28;20044;-69
2023/01/27 01:07:24;;;;;;;1.35;1.25;;;;;;;1.25;91.60;99648.94;5094995;28;20398;-69
2023/01/27 01:09:53;;;;;;;2.83;2.63;;;;;;;1.25;91.48;99643.03;5096189;28;20402;-69
2023/01/27 01:12:24;;;;;;;3.13;2.55;;;;;;;1.25;91.02;99643.91;5095676;28;20067;-69
2023/01/27 01:14:52;;;;;;;2.40;2.22;;;;;;;1.25;91.18;99638.88;5094539;28;20131;-69
2023/01/27 01:17:22;;;;;;;2.22;2.05;;;;;;;1.26;91.64;99640.59;5095835;28;20101;-69
2023/01/27 01:19:51;;;;;;;1.95;1.85;;;;;;;1.24;91.31;99632.16;5095761;28;20040;-69
2023/01/27 01:22:20;;;;;;;3.88;3.50;;;;;;;1.23;91.81;99627.94;5095650;28;20108;-69
2023/01/27 01:24:48;;;;;;;2.27;2.07;;;;;;;1.20;91.29;99612.72;5095339;28;20114;-69
2023/01/27 01:27:17;;;;;;;2.30;2.13;;;;;;;1.27;91.22;99632.25;5094677;28;20341;-69
2023/01/27 01:29:47;;;;;;;3.97;3.57;;;;;;;1.28;91.64;99623.06;5094347;28;20501;-69
2023/01/27 01:32:16;;;;;;;3.30;3.00;;;;;;;1.28;91.81;99618.88;5095861;28;20113;-68
2023/01/27 01:34:45;;;;;;;4.65;3.67;;;;;;;1.23;91.85;99615.34;5095390;28;20040;-69
2023/01/27 01:37:17;;;;;;;3.58;2.75;;;;;;;1.24;91.12;99617.09;5095516;28;20052;-69
2023/01/27 01:39:45;;;;;;;2.83;2.43;;;;;;;1.24;91.33;99619.59;5094159;28;20036;-69
2023/01/27 01:42:14;;;;;;;4.20;3.80;;;;;;;1.26;91.27;99620.50;5095571;28;20040;-70
2023/01/27 01:44:45;;;;;;;3.45;3.20;;;;;;;1.26;91.28;99625.53;5095206;28;20044;-70
2023/01/27 01:47:17;;;;;;;2.45;2.25;;;;;;;1.06;91.32;99586.28;5095179;28;20056;-69
2023/01/27 01:49:47;;;;;;;2.20;2.03;;;;;;;1.20;91.28;99610.22;5093941;28;20098;-69
2023/01/27 01:52:21;;;;;;;2.28;2.13;;;;;;;1.16;91.45;99613.44;5095151;28;20056;-69
2023/01/27 01:54:55;;;;;;;3.38;2.88;;;;;;;1.14;91.11;99605.00;5094974;28;20044;-69
2023/01/27 01:57:31;;;;;;;1.30;1.23;;;;;;;1.14;91.26;99607.50;5094992;28;20098;-69
2023/01/27 02:00:04;;;;;;;3.00;2.80;;;;;;;1.14;91.86;99607.50;5094901;28;20074;-70
2023/01/27 02:02:48;;;;;;;5.13;4.65;;;;;;;1.07;91.80;99603.06;5094930;28;20048;-69
2023/01/27 02:05:23;;;;;;;2.20;2.05;;;;;;;1.06;91.86;99596.31;5094016;28;20048;-70
2023/01/27 02:07:58;;;;;;;4.25;3.03;;;;;;;1.07;91.87;99598.03;5093616;28;20052;-69
2023/01/27 02:10:27;;;;;;;4.93;3.28;;;;;;;1.07;91.38;99593.03;5093526;28;20104;-68
2023/01/27 02:12:56;;;;;;;4.90;3.23;;;;;;;1.10;91.31;99603.19;5095017;28;20117;-69
2023/01/27 02:15:25;;;;;;;5.28;2.85;;;;;;;1.10;91.49;99598.16;5094533;28;20099;-70
2023/01/27 02:17:55;;;;;;;2.75;2.55;;;;;;;1.09;91.45;99600.59;5094622;28;20071;-70
2023/01/27 02:20:31;;;;;;;6.15;5.40;;;;;;;1.08;91.40;99591.38;5094547;28;20052;-69
2023/01/27 02:23:08;;;;;;;0.85;0.85;;;;;;;1.08;91.86;99592.19;5093953;28;20101;-69
2023/01/27 02:25:47;;;;;;;3.03;2.78;;;;;;;1.12;91.55;99589.00;5094352;28;20122;-69
2023/01/27 02:28:16;;;;;;;3.70;3.30;;;;;;;1.14;91.75;99579.88;5093540;28;20048;-69
2023/01/27 02:30:45;;;;;;;4.35;3.50;;;;;;;1.16;91.86;99582.41;5094513;28;20509;-70
2023/01/27 02:33:15;;;;;;;4.30;3.22;;;;;;;1.15;91.72;99583.25;5093708;28;20428;-69
2023/01/27 02:35:51;;;;;;;6.18;5.07;;;;;;;1.15;91.82;99579.03;5093122;28;20044;-68
2023/01/27 02:38:22;;;;;;;8.02;5.68;;;;;;;1.11;91.85;99584.78;5094236;28;20048;-69
2023/01/27 02:40:57;;;;;;;4.43;4.03;;;;;;;1.15;91.32;99573.19;5094123;28;20123;-69
2023/01/27 02:43:26;;;;;;;2.13;2.03;;;;;;;1.17;91.41;99585.00;5092938;28;20044;-69
2023/01/27 02:45:55;;;;;;;4.60;2.63;;;;;;;1.19;91.58;99582.53;5094163;28;20052;-69
2023/01/27 02:48:25;;;;;;;2.95;2.75;;;;;;;1.11;91.86;99579.75;5094109;28;20051;-69
2023/01/27 02:50:54;;;;;;;4.18;3.55;;;;;;;1.13;92.24;99583.16;5093077;28;20063;-69
2023/01/27 02:53:23;;;;;;;3.43;3.17;;;;;;;1.14;92.09;99579.88;5092791;28;20040;-70
2023/01/27 02:55:53;;;;;;;4.40;4.00;;;;;;;1.19;92.20;99578.38;5093868;28;20490;-70
2023/01/27 02:58:22;;;;;;;4.13;2.65;;;;;;;1.14;92.17;99579.88;5092749;28;20037;-70
2023/01/27 03:00:59;;;;;;;2.67;2.47;;;;;;;1.11;91.87;99574.72;5093851;28;20054;-70
2023/01/27 03:03:28;;;;;;;2.55;2.35;;;;;;;1.14;92.08;99579.88;5092709;28;20036;-69
2023/01/27 03:05:57;;;;;;;2.07;1.97;;;;;;;1.15;92.17;99574.00;5094114;28;20121;-69
2023/01/27 03:08:26;;;;;;;5.45;4.95;;;;;;;1.13;91.97;99578.13;5092588;28;20269;-70
2023/01/27 03:10:56;;;;;;;3.40;3.17;;;;;;;1.11;91.49;99584.78;5092654;28;20090;-68
2023/01/27 03:13:26;;;;;;;4.50;2.70;;;;;;;1.11;92.22;99577.25;5092641;28;20070;-69
2023/01/27 03:18:46;;;;;;;4.47;3.60;;;;;;;1.13;91.47;99578.13;5094275;28;20044;-69
2023/01/27 03:21:16;;;;;;;2.90;2.40;;;;;;;1.15;92.30;99581.56;5075901;28;20501;-69
2023/01/27 03:23:47;;;;;;;4.53;4.00;;;;;;;1.12;91.46;99580.63;5093945;28;20054;-69
2023/01/27 03:26:23;;;;;;;2.88;1.77;;;;;;;1.08;92.16;99574.59;5093370;28;20055;-69
2023/01/27 03:31:44;;;;;;;1.98;1.88;;;;;;;1.15;91.48;99585.75;5093238;28;20501;-69
2023/01/27 03:34:14;;;;;;;5.10;4.43;;;;;;;1.09;91.51;99573.81;5093798;28;20076;-69
2023/01/27 03:47:29;;;;;;;2.53;1.75;;;;;;;1.12;91.42;99561.38;5097576;28;20056;-68
2023/01/27 03:49:58;;;;;;;1.87;1.77;;;;;;;1.14;91.67;99558.91;5096519;28;20044;-68
2023/01/27 03:52:27;;;;;;;1.13;1.13;;;;;;;1.11;91.98;99559.66;5097425;28;20036;-69
2023/01/27 03:54:55;;;;;;;3.80;3.50;;;;;;;1.10;91.68;99547.91;5097474;28;20113;-69
2023/01/27 03:57:26;;;;;;;3.03;2.83;;;;;;;1.11;92.07;99544.56;5097337;28;20090;-69
2023/01/27 03:59:54;;;;;;;7.25;4.28;;;;;;;1.11;91.86;99543.72;5097363;28;20402;-69
2023/01/27 04:07:40;;;;;;;5.05;4.55;;;;;;;1.18;92.08;99531.41;5097163;28;20051;-68
2023/01/27 04:10:10;;;;;;;6.50;5.90;;;;;;;1.16;91.84;99535.53;5097115;28;20044;-69
2023/01/27 04:12:39;;;;;;;2.60;2.20;;;;;;;1.14;91.56;99536.28;5097116;28;20101;-70
2023/01/27 04:15:09;;;;;;;7.60;4.80;;;;;;;1.15;92.08;99533.81;5096817;28;20058;-69
2023/01/27 04:17:40;;;;;;;4.63;3.95;;;;;;;1.10;91.59;99512.72;5097230;28;20040;-70
2023/01/27 04:20:11;;;;;;;3.17;2.90;;;;;;;1.16;92.00;99528.00;5096940;28;20051;-70
2023/01/27 04:22:39;;;;;;;3.67;2.70;;;;;;;1.06;91.68;99525.97;5096858;28;20079;-69
2023/01/27 04:25:10;;;;;;;2.47;1.40;;;;;;;1.13;91.65;99524.50;5096726;28;20131;-69
2023/01/27 04:27:42;;;;;;;4.65;4.25;;;;;;;1.13;92.24;99532.91;5097070;28;20094;-68
2023/01/27 04:30:12;;;;;;;6.93;4.88;;;;;;;1.12;92.44;99536.25;5097045;28;20044;-70
2023/01/27 04:32:41;;;;;;;3.95;3.08;;;;;;;1.12;91.62;99538.75;5096916;28;20483;-69
2023/01/27 04:35:10;;;;;;;4.30;3.60;;;;;;;1.13;91.73;99532.06;5096430;28;20044;-69
2023/01/27 04:37:39;;;;;;;;;;;;;;;1.14;91.84;99534.63;5096973;28;20055;-69
2023/01/27 04:40:09;;;;;;;3.83;3.43;;;;;;;1.18;92.36;99536.44;5097141;28;19962;-70
2023/01/27 04:42:38;;;;;;;4.57;4.18;;;;;;;1.18;92.21;99541.47;5096804;28;20044;-69
2023/01/27 04:45:10;;;;;;;3.88;3.30;;;;;;;1.16;92.23;99533.03;5096304;28;20502;-70
2023/01/27 04:47:39;;;;;;;2.72;2.50;;;;;;;1.16;91.65;99548.09;5095811;28;20051;-69
2023/01/27 04:50:10;;;;;;;3.97;3.67;;;;;;;1.12;91.73;99542.91;5096880;28;20455;-69
2023/01/27 04:52:39;;;;;;;7.03;5.75;;;;;;;1.12;91.67;99546.28;5096910;28;20044;-69
2023/01/27 04:55:08;;;;;;;8.38;4.60;;;;;;;1.10;91.63;99542.03;5096383;28;20040;-69
2023/01/27 04:57:37;;;;;;;4.35;3.97;;;;;;;1.09;92.14;99536.13;5096196;28;20040;-69
2023/01/27 05:00:11;;;;;;;2.20;2.07;;;;;;;1.09;92.25;99541.16;5096463;28;20097;-70
2023/01/27 05:02:40;;;;;;;1.30;1.20;;;;;;;1.06;91.90;99536.03;5094943;28;20475;-70
2023/01/27 05:05:10;;;;;;;3.13;2.93;;;;;;;1.05;92.08;99534.31;5096002;28;20123;-69
2023/01/27 05:07:39;;;;;;;1.10;1.10;;;;;;;1.09;91.84;99528.59;5096105;28;20080;-70
2023/01/27 05:10:09;;;;;;;3.07;2.87;;;;;;;1.13;91.85;99540.44;5095940;28;20040;-69
2023/01/27 05:12:38;;;;;;;3.20;2.97;;;;;;;1.14;92.46;99534.63;5096481;28;20124;-69
2023/01/27 05:15:09;;;;;;;4.07;2.37;;;;;;;1.15;92.15;99535.50;5095760;28;20562;-70
2023/01/27 05:17:38;;;;;;;6.18;3.15;;;;;;;1.13;91.45;99532.91;5096052;28;20126;-68
2023/01/27 05:20:08;;;;;;;2.27;2.07;;;;;;;1.17;91.48;99539.78;5095715;28;20044;-68
2023/01/27 05:22:37;;;;;;;2.58;2.42;;;;;;;1.16;91.29;99528.00;5095673;28;20506;-69
2023/01/27 05:25:06;;;;;;;2.07;1.97;;;;;;;1.17;91.52;99529.72;5095673;28;20040;-69
2023/01/27 05:27:36;;;;;;;15.55;3.55;;;;;;;1.14;91.31;99534.63;5094388;28;20044;-69
2023/01/27 05:30:06;;;;;;;2.53;2.33;;;;;;;1.12;92.00;99536.25;5095510;28;20040;-69
2023/01/27 05:32:36;;;;;;;2.50;2.35;;;;;;;1.14;91.45;99539.66;5095500;28;20044;-69
2023/01/27 05:35:06;;;;;;;2.63;1.90;;;;;;;1.14;91.61;99539.66;5095762;28;20143;-69
2023/01/27 05:37:34;;;;;;;1.75;1.50;;;;;;;1.16;91.18;99530.50;5095656;28;20043;-69
2023/01/27 05:40:03;;;;;;;1.80;1.70;;;;;;;1.21;91.86;99528.16;5095281;28;20040;-70
2023/01/27 05:42:32;;;;;;;2.15;2.00;;;;;;;1.27;91.78;99530.88;5095340;28;20044;-69
2023/01/27 05:45:01;;;;;;;1.53;1.43;;;;;;;1.29;90.82;99526.75;5095241;28;20048;-70
2023/01/27 05:47:30;;;;;;;3.13;2.85;;;;;;;1.32;90.71;99524.31;5095222;28;20073;-69
2023/01/27 05:50:01;;;;;;;2.13;1.88;;;;;;;1.35;90.61;99529.47;5095179;28;20097;-70
2023/01/27 05:52:30;;;;;;;2.40;2.20;;;;;;;1.35;90.38;99525.28;5095165;28;20489;-69
2023/01/27 05:54:58;;;;;;;1.52;1.42;;;;;;;1.38;90.18;99523.69;5095055;28;20498;-68
2023/01/27 05:57:27;;;;;;;1.73;1.63;;;;;;;1.43;90.59;99522.16;5094320;28;20130;-70
2023/01/27 05:59:56;;;;;;;5.53;3.33;;;;;;;1.43;89.63;99522.16;5094714;28;20048;-69
2023/01/27 06:02:25;;;;;;;5.50;3.90;;;;;;;1.45;90.02;99510.50;5094886;28;20490;-68
2023/01/27 06:04:53;;;;;;;2.13;2.03;;;;;;;1.45;88.91;99511.34;5094247;28;20490;-69
2023/01/27 06:07:24;;;;;;;2.37;2.13;;;;;;;1.45;88.38;99510.50;5094788;28;20323;-69
2023/01/27 06:09:52;;;;;;;3.13;2.78;;;;;;;1.47;87.93;99508.88;5095124;28;20040;-69
2023/01/27 06:12:21;;;;;;;4.40;3.63;;;;;;;1.48;88.18;99505.56;5094962;28;20549;-68
2023/01/27 06:14:50;;;;;;;10.60;2.15;;;;;;;1.51;87.46;99505.69;5094692;28;20039;-69
2023/01/27 06:17:19;;;;;;;4.57;3.80;;;;;;;1.52;87.97;99509.88;5094816;28;20478;-70
2023/01/27 06:19:48;;;;;;;3.67;3.13;;;;;;;1.50;87.47;99509.00;5094881;28;20421;-69
2023/01/27 06:22:16;;;;;;;3.03;2.83;;;;;;;1.52;86.33;99513.25;5094478;28;20093;-69
2023/01/27 06:24:46;;;;;;;3.97;3.43;;;;;;;1.53;86.65;99514.13;5094341;28;20036;-68
2023/01/27 06:27:15;;;;;;;0.80;0.80;;;;;;;1.53;85.52;99520.00;5094338;28;20127;-68
2023/01/27 06:29:44;;;;;;;2.75;2.22;;;;;;;1.56;85.46;99524.28;5094666;28;20040;-68
2023/01/27 06:32:13;;;;;;;2.70;2.00;;;;;;;1.54;84.97;99526.75;5094369;28;20078;-69
2023/01/27 06:34:41;;;;;;;2.10;1.90;;;;;;;1.57;85.13;99515.94;5094231;28;20055;-69
2023/01/27 06:37:11;;;;;;;2.70;1.85;;;;;;;1.58;84.59;99517.66;5094496;28;20048;-69
2023/01/27 06:39:39;;;;;;;5.85;3.45;;;;;;;1.58;83.58;99530.22;5094200;28;20036;-69
2023/01/27 06:42:10;;;;;;;3.75;2.40;;;;;;;1.57;83.89;99526.84;5094139;28;20040;-69
2023/01/27 06:44:38;;;;;;;1.55;1.38;;;;;;;1.59;83.36;99530.25;5094452;28;20097;-69
2023/01/27 06:47:07;;;;;;;4.17;2.30;;;;;;;1.61;82.84;99528.63;5093974;28;20044;-69
2023/01/27 06:49:36;;;;;;;1.63;1.52;;;;;;;1.64;82.89;99522.84;5094046;28;20038;-70
2023/01/27 06:52:05;;;;;;;3.27;2.00;;;;;;;1.65;82.81;99529.59;5094164;28;20517;-69
2023/01/27 06:54:34;;;;;;;1.85;1.75;;;;;;;1.63;82.56;99521.16;5094499;28;20136;-70
2023/01/27 06:57:02;;;;;;;2.40;2.20;;;;;;;1.64;81.88;99532.91;5093872;28;20036;-68
2023/01/27 06:59:33;;;;;;;2.58;2.38;;;;;;;1.64;82.18;99537.94;5094244;28;20077;-69
2023/01/27 07:02:01;;;;;;;3.33;3.05;;;;;;;1.64;81.94;99538.81;5093918;28;20516;-69
2023/01/27 07:04:30;;;;;;;2.13;1.98;;;;;;;1.63;81.00;99536.25;5094113;28;20042;-69
2023/01/27 07:06:59;;;;;;;3.65;3.25;;;;;;;1.65;81.67;99544.69;5093875;28;20581;-69
2023/01/27 07:09:28;;;;;;;2.90;2.73;;;;;;;1.65;80.61;99544.69;5093539;28;20100;-69
2023/01/27 07:11:59;;;;;;;1.40;1.30;;;;;;;1.63;81.14;99541.28;5094176;28;20067;-69
2023/01/27 07:14:28;;;;;;;4.53;3.33;;;;;;;1.66;80.88;99536.31;5093631;28;20040;-70
2023/01/27 07:16:58;;;;;;;4.38;3.65;;;;;;;1.68;80.35;99539.78;5093608;28;20036;-70
2023/01/27 07:19:27;;;;;;;3.53;2.40;;;;;;;1.70;79.89;99538.16;5093628;28;20131;-69
2023/01/27 07:21:56;;;;;;;2.67;1.43;;;;;;;1.67;80.70;99538.03;5093576;28;20040;-70
2023/01/27 07:24:25;;;;;;;1.02;1.02;;;;;;;1.68;79.63;99537.25;5093594;28;20052;-69
2023/01/27 07:26:54;;;;;;;3.13;2.92;;;;;;;1.70;80.38;99540.66;5093379;28;20086;-68
2023/01/27 07:29:22;;;;;;;3.67;2.23;;;;;;;1.70;79.94;99545.69;5093609;28;20074;-69
2023/01/27 07:31:51;;;;;;;1.40;1.23;;;;;;;1.70;79.14;99543.19;5093507;28;20048;-68
2023/01/27 07:34:21;;;;;;;2.35;2.15;;;;;;;1.75;79.72;99551.72;5093531;28;20048;-70
2023/01/27 07:36:51;;;;;;;3.20;2.95;;;;;;;1.76;79.14;99548.41;5093666;28;20036;-69
2023/01/27 07:39:20;;;;;;;3.13;2.85;;;;;;;1.77;78.99;99553.50;5093395;28;20040;-69
2023/01/27 07:41:49;;;;;;;5.95;4.60;;;;;;;1.78;78.73;99554.31;5093633;28;20379;-70
2023/01/27 07:44:20;;;;;;;5.80;3.95;;;;;;;1.80;78.39;99555.25;5093385;28;20047;-69
2023/01/27 07:46:49;;;;;;;6.72;4.03;;;;;;;1.76;77.86;99553.44;5092299;28;20428;-70
2023/01/27 07:49:18;;;;;;;9.87;4.60;;;;;;;1.81;78.69;99556.94;5093628;28;20085;-69
2023/01/27 07:51:48;;;;;;;2.38;2.13;;;;;;;1.77;78.43;99555.16;5092250;28;20494;-68
2023/01/27 07:54:17;;;;;;;2.78;2.35;;;;;;;1.80;78.55;99556.09;5093555;28;20148;-69
2023/01/27 07:56:46;;;;;;;2.95;2.60;;;;;;;1.81;77.65;99556.94;5093527;28;20424;-69
2023/01/27 07:59:15;;;;;;;2.90;2.67;;;;;;;1.81;77.44;99557.81;5093365;28;20048;-70
2023/01/27 08:01:44;;;;;;;9.70;2.03;;;;;;;1.81;77.51;99554.44;5093340;28;20072;-69
2023/01/27 08:04:19;;;;;;;3.92;1.95;;;;;;;1.83;77.58;99560.34;5093212;28;20338;-69
2023/01/27 08:06:49;;;;;;;1.55;1.45;;;;;;;1.83;76.70;99558.72;5092553;28;20040;-69
2023/01/27 08:09:18;;;;;;;3.25;2.75;;;;;;;1.86;77.11;99565.50;5075550;28;20044;-70
2023/01/27 08:11:47;;;;;;;2.33;2.13;;;;;;;1.88;76.79;99563.88;5073182;28;20115;-69
2023/01/27 08:14:15;;;;;;;3.90;3.60;;;;;;;1.88;76.94;99564.75;5072988;28;20036;-69
2023/01/27 08:16:44;;;;;;;8.00;2.53;;;;;;;1.89;76.66;99565.59;5072913;28;20040;-69
2023/01/27 08:19:13;;;;;;;0.73;0.73;;;;;;;1.83;75.41;99550.28;5080849;28;20119;-69
2023/01/27 08:21:42;;;;;;;8.32;4.38;;;;;;;1.92;75.54;99563.19;5094632;28;20043;-70
2023/01/27 08:24:13;;;;;;;2.63;2.43;;;;;;;1.94;75.21;99564.09;5097088;28;20551;-69
2023/01/27 08:26:41;;;;;;;3.10;2.83;;;;;;;1.94;75.74;99561.56;5096520;28;20774;-69
2023/01/27 08:29:10;;;;;;;0.75;0.75;;;;;;;1.97;75.70;99566.69;5096620;28;20097;-69
2023/01/27 08:31:40;;;;;;;1.02;1.00;;;;;;;1.96;75.16;99562.47;5096733;28;20434;-69
2023/01/27 08:34:09;;;;;;;2.55;2.35;;;;;;;1.98;74.82;99563.38;5096564;28;20055;-70
2023/01/27 08:36:42;;;;;;;2.43;2.23;;;;;;;1.91;75.06;99553.91;5096813;28;20044;-69
2023/01/27 08:39:12;;;;;;;4.43;3.60;;;;;;;1.98;75.37;99556.69;5095160;28;20052;-70
2023/01/27 08:41:42;;;;;;;2.42;1.88;;;;;;;2.01;75.36;99560.97;5096721;28;20044;-69
2023/01/27 08:44:10;;;;;;;2.60;2.40;;;;;;;2.04;74.42;99566.06;5094337;28;20071;-70
2023/01/27 08:46:39;;;;;;;0.90;0.90;;;;;;;1.99;74.30;99560.06;5096570;28;20127;-69
2023/01/27 08:49:08;;;;;;;3.60;3.13;;;;;;;2.04;74.93;99566.06;5096400;28;20653;-70
2023/01/27 08:51:37;;;;;;;2.70;2.50;;;;;;;2.06;74.92;99564.47;5096524;28;20765;-69
2023/01/27 08:54:06;;;;;;;1.57;1.47;;;;;;;2.08;73.87;99562.84;5096267;28;20059;-69
2023/01/27 08:56:36;;;;;;;12.18;3.38;;;;;;;2.09;73.72;99559.50;5096159;28;20044;-70
2023/01/27 08:59:05;;;;;;;1.92;1.63;;;;;;;2.12;73.49;99549.53;5093834;28;20036;-70
2023/01/27 09:01:34;;;;;;;1.05;1.02;;;;;;;2.16;74.39;99550.50;5084773;28;20039;-69
2023/01/27 09:04:03;;;;;;;;;;;;;;;2.14;74.27;99552.94;5076526;28;20048;-70
2023/01/27 09:06:32;;;;;;;1.87;1.77;;;;;;;2.14;73.61;99552.94;5075776;28;19920;-69
2023/01/27 09:11:43;;;;;;;1.80;1.70;;;;;;;2.14;74.01;99563.03;5075822;28;20041;-69
2023/01/27 09:14:12;;;;;;;1.25;1.05;;;;;;;2.13;72.98;99566.38;5075685;28;20119;-69
2023/01/27 09:16:41;;;;;;;2.83;2.63;;;;;;;2.16;72.53;99561.41;5075596;28;20127;-69
2023/01/27 09:19:10;;;;;;;1.98;1.80;;;;;;;2.20;72.87;99562.38;5087343;28;20126;-70
2023/01/27 09:21:39;;;;;;;1.63;1.52;;;;;;;2.25;73.47;99560.84;5095637;28;20097;-70
2023/01/27 09:24:08;;;;;;;5.63;4.13;;;;;;;2.27;73.04;99560.09;5094164;28;20135;-69
2023/01/27 09:26:37;;;;;;;4.95;4.38;;;;;;;2.30;72.43;99565.22;5095584;28;20076;-69
2023/01/27 09:29:07;;;;;;;7.60;3.43;;;;;;;2.30;73.08;99560.19;5095851;28;20071;-69
2023/01/27 09:31:36;;;;;;;1.33;1.25;;;;;;;2.34;72.90;99568.66;5094204;28;20040;-69
2023/01/27 09:34:05;;;;;;;3.38;1.92;;;;;;;2.32;71.61;99568.63;5094502;28;20117;-69
2023/01/27 09:36:41;;;;;;;0.75;0.75;;;;;;;2.28;71.57;99566.81;5095370;28;20032;-70
2023/01/27 09:39:12;;;;;;;1.55;1.45;;;;;;;2.34;71.99;99573.69;5093325;28;20090;-69
2023/01/27 09:42:05;;;;;;;5.25;2.72;;;;;;;2.36;71.85;99567.03;5074919;28;20045;-69
2023/01/27 09:45:03;;;;;;;3.33;3.03;;;;;;;2.46;71.12;99576.59;5075049;28;20068;-69
2023/01/27 09:47:57;;;;;;;1.08;1.05;;;;;;;2.50;71.50;99579.22;5089213;28;20040;-69
2023/01/27 09:50:39;;;;;;;5.55;1.92;;;;;;;2.47;71.52;99564.03;5087577;28;20039;-69
2023/01/27 09:53:29;;;;;;;1.50;1.40;;;;;;;2.61;71.22;99572.84;5094129;28;20079;-69
2023/01/27 09:56:05;;;;;;;4.68;3.20;;;;;;;2.65;70.24;99569.59;5095216;28;20040;-69
2023/01/27 09:58:49;;;;;;;3.83;3.40;;;;;;;2.75;69.92;99569.84;5095169;28;20512;-69
2023/01/27 10:01:28;;;;;;;6.25;3.20;;;;;;;2.77;70.20;99569.09;5095241;28;20103;-68
2023/01/27 10:04:15;;;;;;;2.67;2.47;;;;;;;2.78;70.21;99570.81;5093887;28;20078;-69
2023/01/27 10:07:01;;;;;;;2.33;2.15;;;;;;;2.84;69.56;99570.13;5094730;28;20044;-68
2023/01/27 10:09:50;;;;;;;7.75;4.22;;;;;;;2.87;69.49;99570.22;5086704;28;20433;-69
2023/01/27 10:12:34;;;;;;;1.85;1.75;;;;;;;2.86;69.16;99568.47;5074422;28;20052;-69
2023/01/27 10:15:16;;;;;;;1.75;1.65;;;;;;;2.86;69.27;99568.47;5074415;28;20140;-69
2023/01/27 10:17:57;;;;;;;1.83;1.67;;;;;;;2.80;68.59;99558.25;5075682;28;20461;-69
2023/01/27 10:20:34;;;;;;;1.90;1.70;;;;;;;2.80;68.47;99561.63;5083167;28;20048;-69
2023/01/27 10:23:17;;;;;;;1.58;1.48;;;;;;;2.77;69.19;99545.56;5074308;28;20059;-69
2023/01/27 10:25:59;;;;;;;1.63;1.50;;;;;;;2.85;68.96;99554.19;5073935;28;20049;-69
2023/01/27 10:28:30;;;;;;;3.28;2.25;;;;;;;2.83;69.04;99548.25;5074138;28;20502;-70
2023/01/27 10:31:01;;;;;;;3.22;2.95;;;;;;;2.83;68.65;99548.25;5074056;28;20059;-69
2023/01/27 12:01:00;;;;;;;7.75;5.00;;;;;;;2.85;68.62;99506.31;5132150;27;20402;-68
2023/01/27 12:03:43;;;;;;;5.32;3.08;;;;;;;2.93;68.70;99508.22;5131866;28;20051;-68
2023/01/27 12:06:16;;;;;;;5.03;3.63;;;;;;;2.96;68.51;99494.84;5130485;28;20436;-68
2023/01/27 12:08:48;;;;;;;4.07;3.67;;;;;;;2.99;67.79;99510.06;5129663;27;20134;-68
2023/01/27 12:11:22;;;;;;;2.53;2.35;;;;;;;3.06;67.56;99501.84;5131715;28;20163;-68
2023/01/27 12:13:54;;;;;;;3.42;3.05;;;;;;;3.02;66.95;99489.97;5131689;27;20039;-68
2023/01/27 12:16:35;;;;;;;4.57;2.97;;;;;;;3.16;67.11;99501.25;5131698;27;20047;-68
2023/01/27 12:19:15;;;;;;;2.40;2.20;;;;;;;3.22;67.88;99506.44;5128345;27;20069;-68
2023/01/27 12:21:48;;;;;;;1.02;1.00;;;;;;;3.19;67.06;99491.25;5120638;28;20454;-68
2023/01/27 12:24:27;;;;;;;4.00;1.95;;;;;;;3.24;67.20;99492.22;5111290;28;20043;-69
2023/01/27 12:26:57;;;;;;;1.80;1.67;;;;;;;3.28;67.60;99494.00;5111245;28;20517;-68
2023/01/27 12:29:32;;;;;;;2.03;1.88;;;;;;;3.26;67.63;99485.56;5111061;28;20048;-69
2023/01/27 12:32:02;;;;;;;1.17;1.08;;;;;;;3.24;66.95;99482.13;5110747;28;20046;-68
2023/01/27 12:34:35;;;;;;;1.05;1.02;;;;;;;3.26;67.02;99480.53;5111138;28;20397;-68
2023/01/27 12:37:07;;;;;;;1.60;1.42;;;;;;;3.28;65.96;99478.88;5111065;28;20493;-68
2023/01/27 12:39:42;;;;;;;1.70;1.60;;;;;;;3.21;66.18;99479.53;5110668;28;20047;-68
2023/01/27 12:42:32;;;;;;;3.85;2.85;;;;;;;3.21;66.00;99482.06;5110901;28;20063;-68
2023/01/27 12:45:01;;;;;;;3.22;2.72;;;;;;;3.20;66.31;99475.31;5110810;28;20040;-68
2023/01/27 12:47:31;;;;;;;4.30;2.77;;;;;;;3.22;66.78;99483.75;5110641;28;20048;-69
2023/01/27 12:50:21;;;;;;;2.90;2.53;;;;;;;3.24;66.79;99467.00;5110480;28;20051;-68
2023/01/27 12:53:03;;;;;;;0.93;0.93;;;;;;;3.20;66.55;99473.66;5110732;28;20043;-68
2023/01/27 12:55:33;;;;;;;2.17;2.08;;;;;;;3.16;66.52;99471.88;5110254;28;20048;-68
2023/01/27 12:58:04;;;;;;;6.78;5.15;;;;;;;3.18;66.54;99471.91;5111101;28;20052;-68
2023/01/27 13:00:34;;;;;;;4.60;3.03;;;;;;;3.19;66.35;99473.63;5122241;28;20508;-67
2023/01/27 13:03:12;;;;;;;9.32;4.32;;;;;;;3.21;65.95;99462.75;5120562;27;20035;-67
2023/01/27 13:05:44;;;;;;;3.33;2.58;;;;;;;3.20;66.09;99465.22;5130661;28;20047;-68
2023/01/27 13:08:17;;;;;;;1.45;1.35;;;;;;;3.25;66.24;99466.19;5130897;28;20474;-68
2023/01/27 13:10:51;;;;;;;4.28;3.88;;;;;;;3.24;66.82;99459.44;5125873;27;20039;-68
2023/01/27 13:13:25;;;;;;;2.38;2.17;;;;;;;3.28;66.25;99463.75;5117134;28;20048;-68
2023/01/27 13:15:57;;;;;;;1.67;1.55;;;;;;;3.31;66.39;99476.44;5117146;28;20501;-68
2023/01/27 13:18:33;;;;;;;4.50;4.03;;;;;;;3.29;66.86;99470.47;5117056;28;20050;-67
2023/01/27 13:21:13;;;;;;;5.10;3.05;;;;;;;3.26;66.41;99467.91;5116558;28;20064;-68
2023/01/27 13:23:41;;;;;;;;;;;;;;;3.28;66.34;99468.78;5117061;28;20048;-69
2023/01/27 13:26:17;;;;;;;2.83;2.63;;;;;;;3.24;66.48;99472.03;5116887;28;20345;-68
2023/01/27 13:28:52;;;;;;;7.53;3.35;;;;;;;2.99;66.35;99444.53;5116858;28;20051;-68
2023/01/27 13:31:33;;;;;;;4.35;2.65;;;;;;;3.13;65.87;99478.50;5110959;28;20043;-68
2023/01/27 13:34:11;;;;;;;4.25;3.00;;;;;;;3.12;66.07;99475.09;5120727;27;20537;-67
2023/01/27 13:36:44;;;;;;;10.30;2.85;;;;;;;2.93;65.39;99446.91;5095984;28;20067;-68
2023/01/27 13:39:19;;;;;;;3.28;2.63;;;;;;;3.13;65.29;99475.97;5096053;28;20127;-68
2023/01/27 13:41:55;;;;;;;1.23;1.17;;;;;;;3.18;65.96;99481.97;5095960;28;20071;-68
2023/01/27 13:44:30;;;;;;;5.80;1.83;;;;;;;3.03;66.03;99451.34;5096221;28;20040;-68
2023/01/27 13:47:03;;;;;;;3.28;3.03;;;;;;;3.12;66.73;99477.63;5095785;28;20047;-67
2023/01/27 13:49:41;;;;;;;1.90;1.75;;;;;;;3.07;66.03;99480.88;5112664;28;20048;-67
2023/01/27 13:52:12;;;;;;;1.55;1.45;;;;;;;3.08;66.27;99485.06;5113896;27;20100;-67
2023/01/27 13:54:40;;;;;;;5.07;3.58;;;;;;;3.09;66.59;99491.84;5113251;28;20042;-67
2023/01/27 13:57:34;;;;;;;4.18;2.92;;;;;;;3.08;65.83;99487.59;5114078;28;20063;-67
2023/01/27 14:00:11;;;;;;;4.97;1.92;;;;;;;3.07;66.70;99488.44;5115501;28;20062;-68
2023/01/27 14:03:06;;;;;;;5.68;1.90;;;;;;;3.02;66.08;99485.78;5115003;28;20059;-67
2023/01/27 14:05:49;;;;;;;0.80;0.80;;;;;;;3.03;66.66;99491.66;5109592;28;20409;-67
2023/01/27 14:08:45;;;;;;;2.38;2.13;;;;;;;2.99;66.99;99505.00;5095358;28;20048;-67